sensor_id;sensor_type;location;lat;lon;timestamp;P1;durP1;ratioP1;P2;durP2;ratioP2
67053;SDS011;53960;51.826;5.850;2023-06-22T00:01:46;12.37;;;6.70;;
67053;SDS011;53960;51.826;5.850;2023-06-22T00:04:11;13.17;;;6.60;;
67053;SDS011;53960;51.826;5.850;2023-06-22T00:06:36;12.00;;;6.60;;
67053;SDS011;53960;51.826;5.850;2023-06-22T00:09:02;14.27;;;7.00;;
67053;SDS011;53960;51.826;5.850;2023-06-22T00:11:28;13.70;;;6.90;;
67053;SDS011;53960;51.826;5.850;2023-06-22T00:13:53;13.83;;;7.77;;
67053;SDS011;53960;51.826;5.850;2023-06-22T00:16:18;12.93;;;6.70;;
67053;SDS011;53960;51.826;5.850;2023-06-22T00:18:44;12.50;;;7.53;;
67053;SDS011;53960;51.826;5.850;2023-06-22T00:21:12;15.45;;;7.28;;
67053;SDS011;53960;51.826;5.850;2023-06-22T00:23:38;12.65;;;7.47;;
67053;SDS011;53960;51.826;5.850;2023-06-22T00:26:03;12.20;;;6.50;;
67053;SDS011;53960;51.826;5.850;2023-06-22T00:28:28;12.83;;;7.20;;
67053;SDS011;53960;51.826;5.850;2023-06-22T00:30:54;14.13;;;7.40;;
67053;SDS011;53960;51.826;5.850;2023-06-22T00:33:19;11.77;;;7.00;;
67053;SDS011;53960;51.826;5.850;2023-06-22T00:35:44;13.20;;;7.40;;
67053;SDS011;53960;51.826;5.850;2023-06-22T00:38:10;13.73;;;7.20;;
67053;SDS011;53960;51.826;5.850;2023-06-22T00:40:36;12.43;;;7.00;;
67053;SDS011;53960;51.826;5.850;2023-06-22T00:43:01;13.32;;;6.85;;
67053;SDS011;53960;51.826;5.850;2023-06-22T00:45:27;14.60;;;7.53;;
67053;SDS011;53960;51.826;5.850;2023-06-22T00:47:53;14.40;;;7.17;;
67053;SDS011;53960;51.826;5.850;2023-06-22T00:50:21;12.90;;;7.03;;
67053;SDS011;53960;51.826;5.850;2023-06-22T00:52:52;15.37;;;7.23;;
67053;SDS011;53960;51.826;5.850;2023-06-22T00:55:21;13.88;;;7.70;;
67053;SDS011;53960;51.826;5.850;2023-06-22T00:57:48;14.45;;;7.15;;
67053;SDS011;53960;51.826;5.850;2023-06-22T01:00:14;12.70;;;6.90;;
67053;SDS011;53960;51.826;5.850;2023-06-22T01:02:42;14.98;;;7.43;;
67053;SDS011;53960;51.826;5.850;2023-06-22T01:05:10;11.97;;;6.90;;
67053;SDS011;53960;51.826;5.850;2023-06-22T01:07:42;14.05;;;7.05;;
67053;SDS011;53960;51.826;5.850;2023-06-22T01:13:04;13.73;;;7.57;;
67053;SDS011;53960;51.826;5.850;2023-06-22T01:18:44;13.97;;;7.33;;
67053;SDS011;53960;51.826;5.850;2023-06-22T01:21:15;13.98;;;7.93;;
67053;SDS011;53960;51.826;5.850;2023-06-22T01:29:42;13.07;;;7.43;;
67053;SDS011;53960;51.826;5.850;2023-06-22T01:32:09;14.90;;;7.60;;
67053;SDS011;53960;51.826;5.850;2023-06-22T01:34:36;13.73;;;7.22;;
67053;SDS011;53960;51.826;5.850;2023-06-22T01:37:04;15.30;;;8.77;;
67053;SDS011;53960;51.826;5.850;2023-06-22T01:39:31;15.35;;;8.40;;
67053;SDS011;53960;51.826;5.850;2023-06-22T01:41:57;13.20;;;7.45;;
67053;SDS011;53960;51.826;5.850;2023-06-22T01:44:23;15.13;;;7.60;;
67053;SDS011;53960;51.826;5.850;2023-06-22T01:46:50;12.85;;;7.63;;
67053;SDS011;53960;51.826;5.850;2023-06-22T01:49:17;13.02;;;7.68;;
67053;SDS011;53960;51.826;5.850;2023-06-22T01:51:42;15.53;;;7.87;;
67053;SDS011;53960;51.826;5.850;2023-06-22T01:54:08;13.87;;;7.70;;
67053;SDS011;53960;51.826;5.850;2023-06-22T01:56:34;13.10;;;7.67;;
67053;SDS011;53960;51.826;5.850;2023-06-22T02:01:43;15.07;;;7.75;;
67053;SDS011;53960;51.826;5.850;2023-06-22T02:04:22;14.68;;;7.55;;
67053;SDS011;53960;51.826;5.850;2023-06-22T02:06:51;12.33;;;7.17;;
67053;SDS011;53960;51.826;5.850;2023-06-22T02:09:21;13.55;;;7.40;;
67053;SDS011;53960;51.826;5.850;2023-06-22T02:11:48;13.43;;;7.88;;
67053;SDS011;53960;51.826;5.850;2023-06-22T02:14:19;14.02;;;7.28;;
67053;SDS011;53960;51.826;5.850;2023-06-22T02:16:46;15.05;;;7.47;;
67053;SDS011;53960;51.826;5.850;2023-06-22T02:19:12;13.57;;;7.30;;
67053;SDS011;53960;51.826;5.850;2023-06-22T02:21:37;16.03;;;8.10;;
67053;SDS011;53960;51.826;5.850;2023-06-22T02:24:03;14.57;;;7.53;;
67053;SDS011;53960;51.826;5.850;2023-06-22T02:26:29;14.48;;;7.97;;
67053;SDS011;53960;51.826;5.850;2023-06-22T02:28:55;14.93;;;8.30;;
67053;SDS011;53960;51.826;5.850;2023-06-22T02:31:20;14.15;;;7.70;;
67053;SDS011;53960;51.826;5.850;2023-06-22T02:33:46;13.70;;;7.30;;
67053;SDS011;53960;51.826;5.850;2023-06-22T02:36:11;14.90;;;7.83;;
67053;SDS011;53960;51.826;5.850;2023-06-22T02:38:38;13.57;;;8.20;;
67053;SDS011;53960;51.826;5.850;2023-06-22T02:41:13;14.57;;;7.78;;
67053;SDS011;53960;51.826;5.850;2023-06-22T02:43:43;14.73;;;7.78;;
67053;SDS011;53960;51.826;5.850;2023-06-22T02:46:08;14.13;;;7.83;;
67053;SDS011;53960;51.826;5.850;2023-06-22T02:48:34;15.00;;;8.50;;
67053;SDS011;53960;51.826;5.850;2023-06-22T02:51:00;12.98;;;7.60;;
67053;SDS011;53960;51.826;5.850;2023-06-22T02:53:25;14.20;;;8.57;;
67053;SDS011;53960;51.826;5.850;2023-06-22T02:55:50;13.97;;;8.17;;
67053;SDS011;53960;51.826;5.850;2023-06-22T02:58:16;14.60;;;7.97;;
67053;SDS011;53960;51.826;5.850;2023-06-22T03:00:41;15.57;;;8.27;;
67053;SDS011;53960;51.826;5.850;2023-06-22T03:03:07;12.87;;;7.50;;
67053;SDS011;53960;51.826;5.850;2023-06-22T03:05:32;12.93;;;7.40;;
67053;SDS011;53960;51.826;5.850;2023-06-22T03:07:57;12.40;;;7.40;;
67053;SDS011;53960;51.826;5.850;2023-06-22T03:10:23;13.65;;;7.35;;
67053;SDS011;53960;51.826;5.850;2023-06-22T03:12:48;13.43;;;7.83;;
67053;SDS011;53960;51.826;5.850;2023-06-22T03:15:13;14.87;;;8.17;;
67053;SDS011;53960;51.826;5.850;2023-06-22T03:17:39;13.77;;;7.93;;
67053;SDS011;53960;51.826;5.850;2023-06-22T03:20:06;15.23;;;9.10;;
67053;SDS011;53960;51.826;5.850;2023-06-22T03:22:34;14.68;;;8.00;;
67053;SDS011;53960;51.826;5.850;2023-06-22T03:25:00;16.70;;;8.15;;
67053;SDS011;53960;51.826;5.850;2023-06-22T03:27:26;14.53;;;7.80;;
67053;SDS011;53960;51.826;5.850;2023-06-22T03:29:51;15.50;;;8.67;;
67053;SDS011;53960;51.826;5.850;2023-06-22T03:32:16;14.07;;;7.67;;
67053;SDS011;53960;51.826;5.850;2023-06-22T03:34:42;13.23;;;8.07;;
67053;SDS011;53960;51.826;5.850;2023-06-22T03:37:12;14.27;;;8.30;;
67053;SDS011;53960;51.826;5.850;2023-06-22T03:39:39;13.23;;;7.82;;
67053;SDS011;53960;51.826;5.850;2023-06-22T03:42:04;16.97;;;8.67;;
67053;SDS011;53960;51.826;5.850;2023-06-22T03:44:30;14.82;;;8.02;;
67053;SDS011;53960;51.826;5.850;2023-06-22T03:46:56;15.47;;;7.87;;
67053;SDS011;53960;51.826;5.850;2023-06-22T03:49:21;14.60;;;7.67;;
67053;SDS011;53960;51.826;5.850;2023-06-22T03:51:46;13.95;;;7.88;;
67053;SDS011;53960;51.826;5.850;2023-06-22T03:54:12;14.80;;;7.83;;
67053;SDS011;53960;51.826;5.850;2023-06-22T03:56:37;14.53;;;8.13;;
67053;SDS011;53960;51.826;5.850;2023-06-22T03:59:03;16.30;;;8.40;;
67053;SDS011;53960;51.826;5.850;2023-06-22T04:01:28;15.93;;;8.40;;
67053;SDS011;53960;51.826;5.850;2023-06-22T04:03:54;14.17;;;8.40;;
67053;SDS011;53960;51.826;5.850;2023-06-22T04:06:19;15.33;;;8.90;;
67053;SDS011;53960;51.826;5.850;2023-06-22T04:08:45;13.47;;;8.57;;
67053;SDS011;53960;51.826;5.850;2023-06-22T04:11:16;13.70;;;7.80;;
67053;SDS011;53960;51.826;5.850;2023-06-22T04:13:42;14.10;;;8.55;;
67053;SDS011;53960;51.826;5.850;2023-06-22T04:16:07;16.07;;;9.13;;
67053;SDS011;53960;51.826;5.850;2023-06-22T04:18:33;16.97;;;9.40;;
67053;SDS011;53960;51.826;5.850;2023-06-22T04:20:58;15.82;;;9.30;;
67053;SDS011;53960;51.826;5.850;2023-06-22T04:23:23;19.47;;;10.80;;
67053;SDS011;53960;51.826;5.850;2023-06-22T04:25:49;18.37;;;10.67;;
67053;SDS011;53960;51.826;5.850;2023-06-22T04:28:15;16.45;;;9.93;;
67053;SDS011;53960;51.826;5.850;2023-06-22T04:30:40;18.00;;;11.17;;
67053;SDS011;53960;51.826;5.850;2023-06-22T04:33:12;19.67;;;11.40;;
67053;SDS011;53960;51.826;5.850;2023-06-22T04:35:40;17.48;;;11.70;;
67053;SDS011;53960;51.826;5.850;2023-06-22T04:38:09;19.20;;;11.50;;
67053;SDS011;53960;51.826;5.850;2023-06-22T04:40:34;21.85;;;12.85;;
67053;SDS011;53960;51.826;5.850;2023-06-22T04:42:59;19.23;;;12.00;;
67053;SDS011;53960;51.826;5.850;2023-06-22T04:45:27;20.02;;;13.27;;
67053;SDS011;53960;51.826;5.850;2023-06-22T04:47:56;21.13;;;13.63;;
67053;SDS011;53960;51.826;5.850;2023-06-22T04:50:22;21.20;;;12.88;;
67053;SDS011;53960;51.826;5.850;2023-06-22T04:52:48;19.87;;;12.47;;
67053;SDS011;53960;51.826;5.850;2023-06-22T04:55:14;20.98;;;13.38;;
67053;SDS011;53960;51.826;5.850;2023-06-22T04:57:47;23.70;;;13.85;;
67053;SDS011;53960;51.826;5.850;2023-06-22T05:00:14;22.73;;;14.55;;
67053;SDS011;53960;51.826;5.850;2023-06-22T05:02:43;22.67;;;13.98;;
67053;SDS011;53960;51.826;5.850;2023-06-22T05:05:13;21.30;;;13.93;;
67053;SDS011;53960;51.826;5.850;2023-06-22T05:07:39;21.63;;;14.13;;
67053;SDS011;53960;51.826;5.850;2023-06-22T05:10:08;21.70;;;14.82;;
67053;SDS011;53960;51.826;5.850;2023-06-22T05:12:36;21.85;;;15.20;;
67053;SDS011;53960;51.826;5.850;2023-06-22T05:15:01;21.60;;;14.10;;
67053;SDS011;53960;51.826;5.850;2023-06-22T05:17:27;21.03;;;14.23;;
67053;SDS011;53960;51.826;5.850;2023-06-22T05:19:52;22.95;;;14.73;;
67053;SDS011;53960;51.826;5.850;2023-06-22T05:22:18;22.83;;;14.73;;
67053;SDS011;53960;51.826;5.850;2023-06-22T05:24:43;21.83;;;15.30;;
67053;SDS011;53960;51.826;5.850;2023-06-22T05:27:09;22.20;;;15.15;;
67053;SDS011;53960;51.826;5.850;2023-06-22T05:29:35;27.47;;;17.40;;
67053;SDS011;53960;51.826;5.850;2023-06-22T05:32:02;25.58;;;15.88;;
67053;SDS011;53960;51.826;5.850;2023-06-22T05:34:27;23.30;;;16.33;;
67053;SDS011;53960;51.826;5.850;2023-06-22T05:36:53;24.33;;;16.47;;
67053;SDS011;53960;51.826;5.850;2023-06-22T05:39:18;21.93;;;15.20;;
67053;SDS011;53960;51.826;5.850;2023-06-22T05:41:44;24.90;;;16.60;;
67053;SDS011;53960;51.826;5.850;2023-06-22T05:44:11;26.77;;;16.48;;
67053;SDS011;53960;51.826;5.850;2023-06-22T05:46:36;27.67;;;17.55;;
67053;SDS011;53960;51.826;5.850;2023-06-22T05:49:02;27.00;;;16.83;;
67053;SDS011;53960;51.826;5.850;2023-06-22T05:51:27;26.23;;;17.43;;
67053;SDS011;53960;51.826;5.850;2023-06-22T05:53:53;25.50;;;17.17;;
67053;SDS011;53960;51.826;5.850;2023-06-22T05:56:18;24.80;;;17.30;;
67053;SDS011;53960;51.826;5.850;2023-06-22T05:58:43;24.23;;;16.73;;
67053;SDS011;53960;51.826;5.850;2023-06-22T06:01:09;23.37;;;16.07;;
67053;SDS011;53960;51.826;5.850;2023-06-22T06:03:34;25.40;;;16.33;;
67053;SDS011;53960;51.826;5.850;2023-06-22T06:06:06;26.40;;;17.15;;
67053;SDS011;53960;51.826;5.850;2023-06-22T06:08:32;25.33;;;15.97;;
67053;SDS011;53960;51.826;5.850;2023-06-22T06:10:57;24.60;;;15.93;;
67053;SDS011;53960;51.826;5.850;2023-06-22T06:13:23;24.17;;;16.47;;
67053;SDS011;53960;51.826;5.850;2023-06-22T06:15:48;23.87;;;16.50;;
67053;SDS011;53960;51.826;5.850;2023-06-22T06:18:16;22.30;;;15.65;;
67053;SDS011;53960;51.826;5.850;2023-06-22T06:20:41;25.80;;;17.97;;
67053;SDS011;53960;51.826;5.850;2023-06-22T06:23:07;23.83;;;16.57;;
67053;SDS011;53960;51.826;5.850;2023-06-22T06:25:32;23.77;;;17.02;;
67053;SDS011;53960;51.826;5.850;2023-06-22T06:27:57;23.43;;;16.27;;
67053;SDS011;53960;51.826;5.850;2023-06-22T06:30:23;25.80;;;16.73;;
67053;SDS011;53960;51.826;5.850;2023-06-22T06:32:49;24.63;;;15.93;;
67053;SDS011;53960;51.826;5.850;2023-06-22T06:35:14;26.30;;;17.42;;
67053;SDS011;53960;51.826;5.850;2023-06-22T06:37:44;24.95;;;16.52;;
67053;SDS011;53960;51.826;5.850;2023-06-22T06:40:11;23.00;;;15.65;;
67053;SDS011;53960;51.826;5.850;2023-06-22T06:42:38;26.75;;;17.20;;
67053;SDS011;53960;51.826;5.850;2023-06-22T06:45:09;22.57;;;15.67;;
67053;SDS011;53960;51.826;5.850;2023-06-22T06:47:35;24.58;;;16.52;;
67053;SDS011;53960;51.826;5.850;2023-06-22T06:50:00;25.23;;;17.37;;
67053;SDS011;53960;51.826;5.850;2023-06-22T06:52:27;25.65;;;16.38;;
67053;SDS011;53960;51.826;5.850;2023-06-22T06:54:52;24.57;;;17.23;;
67053;SDS011;53960;51.826;5.850;2023-06-22T06:57:18;22.83;;;16.57;;
67053;SDS011;53960;51.826;5.850;2023-06-22T06:59:45;25.17;;;16.83;;
67053;SDS011;53960;51.826;5.850;2023-06-22T07:02:10;24.42;;;16.23;;
67053;SDS011;53960;51.826;5.850;2023-06-22T07:04:35;24.27;;;15.97;;
67053;SDS011;53960;51.826;5.850;2023-06-22T07:07:02;24.30;;;17.45;;
67053;SDS011;53960;51.826;5.850;2023-06-22T07:09:28;26.77;;;17.07;;
67053;SDS011;53960;51.826;5.850;2023-06-22T07:11:53;24.70;;;17.17;;
67053;SDS011;53960;51.826;5.850;2023-06-22T07:14:18;24.05;;;16.98;;
67053;SDS011;53960;51.826;5.850;2023-06-22T07:16:44;24.00;;;16.43;;
67053;SDS011;53960;51.826;5.850;2023-06-22T07:19:11;24.03;;;16.33;;
67053;SDS011;53960;51.826;5.850;2023-06-22T07:21:37;21.55;;;15.43;;
67053;SDS011;53960;51.826;5.850;2023-06-22T07:24:04;22.00;;;15.53;;
67053;SDS011;53960;51.826;5.850;2023-06-22T07:26:30;23.40;;;16.63;;
67053;SDS011;53960;51.826;5.850;2023-06-22T07:28:56;24.38;;;16.75;;
67053;SDS011;53960;51.826;5.850;2023-06-22T07:31:23;23.60;;;16.20;;
67053;SDS011;53960;51.826;5.850;2023-06-22T07:33:49;24.17;;;16.00;;
67053;SDS011;53960;51.826;5.850;2023-06-22T07:36:16;22.07;;;15.67;;
67053;SDS011;53960;51.826;5.850;2023-06-22T07:38:42;23.60;;;16.08;;
67053;SDS011;53960;51.826;5.850;2023-06-22T07:41:07;26.80;;;17.87;;
67053;SDS011;53960;51.826;5.850;2023-06-22T07:43:32;23.50;;;16.20;;
67053;SDS011;53960;51.826;5.850;2023-06-22T07:45:59;23.58;;;16.27;;
67053;SDS011;53960;51.826;5.850;2023-06-22T07:48:25;23.98;;;17.13;;
67053;SDS011;53960;51.826;5.850;2023-06-22T07:50:50;23.40;;;17.30;;
67053;SDS011;53960;51.826;5.850;2023-06-22T07:53:17;24.27;;;17.10;;
67053;SDS011;53960;51.826;5.850;2023-06-22T07:55:43;25.07;;;17.67;;
67053;SDS011;53960;51.826;5.850;2023-06-22T07:58:08;21.80;;;16.88;;
67053;SDS011;53960;51.826;5.850;2023-06-22T08:00:33;24.60;;;18.33;;
67053;SDS011;53960;51.826;5.850;2023-06-22T08:02:59;24.90;;;17.60;;
67053;SDS011;53960;51.826;5.850;2023-06-22T08:05:24;25.53;;;17.90;;
67053;SDS011;53960;51.826;5.850;2023-06-22T08:07:50;26.13;;;17.60;;
67053;SDS011;53960;51.826;5.850;2023-06-22T08:10:15;24.63;;;18.00;;
67053;SDS011;53960;51.826;5.850;2023-06-22T08:12:41;22.87;;;17.27;;
67053;SDS011;53960;51.826;5.850;2023-06-22T08:15:07;24.23;;;17.80;;
67053;SDS011;53960;51.826;5.850;2023-06-22T08:17:33;22.55;;;16.35;;
67053;SDS011;53960;51.826;5.850;2023-06-22T08:19:58;26.33;;;17.90;;
67053;SDS011;53960;51.826;5.850;2023-06-22T08:22:25;23.15;;;17.40;;
67053;SDS011;53960;51.826;5.850;2023-06-22T08:24:50;24.63;;;17.47;;
67053;SDS011;53960;51.826;5.850;2023-06-22T08:27:16;24.45;;;16.83;;
67053;SDS011;53960;51.826;5.850;2023-06-22T08:29:43;24.88;;;18.02;;
67053;SDS011;53960;51.826;5.850;2023-06-22T08:32:10;25.50;;;17.07;;
67053;SDS011;53960;51.826;5.850;2023-06-22T08:34:36;24.63;;;16.88;;
67053;SDS011;53960;51.826;5.850;2023-06-22T08:37:01;24.13;;;16.33;;
67053;SDS011;53960;51.826;5.850;2023-06-22T08:39:31;24.10;;;17.50;;
67053;SDS011;53960;51.826;5.850;2023-06-22T08:41:56;23.85;;;16.73;;
67053;SDS011;53960;51.826;5.850;2023-06-22T08:44:22;22.63;;;16.03;;
67053;SDS011;53960;51.826;5.850;2023-06-22T08:46:47;22.80;;;16.43;;
67053;SDS011;53960;51.826;5.850;2023-06-22T08:49:13;23.80;;;17.10;;
67053;SDS011;53960;51.826;5.850;2023-06-22T08:51:38;23.63;;;16.20;;
67053;SDS011;53960;51.826;5.850;2023-06-22T08:54:03;21.57;;;15.67;;
67053;SDS011;53960;51.826;5.850;2023-06-22T08:56:29;23.90;;;16.23;;
67053;SDS011;53960;51.826;5.850;2023-06-22T08:58:54;21.13;;;15.30;;
67053;SDS011;53960;51.826;5.850;2023-06-22T09:01:20;22.63;;;14.00;;
67053;SDS011;53960;51.826;5.850;2023-06-22T09:03:45;21.30;;;15.45;;
67053;SDS011;53960;51.826;5.850;2023-06-22T09:06:19;19.92;;;14.23;;
67053;SDS011;53960;51.826;5.850;2023-06-22T09:08:46;20.67;;;13.40;;
67053;SDS011;53960;51.826;5.850;2023-06-22T09:11:12;22.42;;;14.15;;
67053;SDS011;53960;51.826;5.850;2023-06-22T09:13:37;20.73;;;13.73;;
67053;SDS011;53960;51.826;5.850;2023-06-22T09:16:02;21.83;;;14.38;;
67053;SDS011;53960;51.826;5.850;2023-06-22T09:18:28;21.23;;;13.80;;
67053;SDS011;53960;51.826;5.850;2023-06-22T09:20:53;20.93;;;14.33;;
67053;SDS011;53960;51.826;5.850;2023-06-22T09:23:18;20.27;;;14.07;;
67053;SDS011;53960;51.826;5.850;2023-06-22T09:25:44;17.53;;;12.40;;
67053;SDS011;53960;51.826;5.850;2023-06-22T09:28:09;18.98;;;13.82;;
67053;SDS011;53960;51.826;5.850;2023-06-22T09:30:35;19.17;;;12.53;;
67053;SDS011;53960;51.826;5.850;2023-06-22T09:33:00;18.00;;;12.43;;
67053;SDS011;53960;51.826;5.850;2023-06-22T09:35:26;18.80;;;12.07;;
67053;SDS011;53960;51.826;5.850;2023-06-22T09:37:51;17.73;;;11.98;;
67053;SDS011;53960;51.826;5.850;2023-06-22T09:40:17;19.73;;;12.90;;
67053;SDS011;53960;51.826;5.850;2023-06-22T09:42:42;18.73;;;13.23;;
67053;SDS011;53960;51.826;5.850;2023-06-22T09:45:08;20.15;;;13.25;;
67053;SDS011;53960;51.826;5.850;2023-06-22T09:47:33;18.43;;;11.67;;
67053;SDS011;53960;51.826;5.850;2023-06-22T09:49:59;17.30;;;11.73;;
67053;SDS011;53960;51.826;5.850;2023-06-22T09:52:24;19.17;;;12.45;;
67053;SDS011;53960;51.826;5.850;2023-06-22T09:54:50;17.87;;;11.97;;
67053;SDS011;53960;51.826;5.850;2023-06-22T09:57:15;18.38;;;11.50;;
67053;SDS011;53960;51.826;5.850;2023-06-22T09:59:41;17.60;;;11.17;;
67053;SDS011;53960;51.826;5.850;2023-06-22T10:02:06;17.77;;;11.23;;
67053;SDS011;53960;51.826;5.850;2023-06-22T10:04:33;15.95;;;10.35;;
67053;SDS011;53960;51.826;5.850;2023-06-22T10:06:59;17.35;;;10.95;;
67053;SDS011;53960;51.826;5.850;2023-06-22T10:09:24;16.93;;;10.93;;
67053;SDS011;53960;51.826;5.850;2023-06-22T10:11:49;16.67;;;10.53;;
67053;SDS011;53960;51.826;5.850;2023-06-22T10:14:15;15.73;;;10.53;;
67053;SDS011;53960;51.826;5.850;2023-06-22T10:16:41;17.63;;;11.13;;
67053;SDS011;53960;51.826;5.850;2023-06-22T10:19:07;16.57;;;11.70;;
67053;SDS011;53960;51.826;5.850;2023-06-22T10:21:32;16.85;;;10.75;;
67053;SDS011;53960;51.826;5.850;2023-06-22T10:23:58;16.43;;;10.67;;
67053;SDS011;53960;51.826;5.850;2023-06-22T10:26:26;15.40;;;10.50;;
67053;SDS011;53960;51.826;5.850;2023-06-22T10:28:54;16.33;;;10.63;;
67053;SDS011;53960;51.826;5.850;2023-06-22T10:31:19;18.03;;;10.67;;
67053;SDS011;53960;51.826;5.850;2023-06-22T10:33:45;15.00;;;10.52;;
67053;SDS011;53960;51.826;5.850;2023-06-22T10:36:10;15.80;;;10.57;;
67053;SDS011;53960;51.826;5.850;2023-06-22T10:38:36;16.23;;;10.55;;
67053;SDS011;53960;51.826;5.850;2023-06-22T10:41:02;16.83;;;10.73;;
67053;SDS011;53960;51.826;5.850;2023-06-22T10:43:27;17.83;;;10.97;;
67053;SDS011;53960;51.826;5.850;2023-06-22T10:45:52;16.53;;;10.80;;
67053;SDS011;53960;51.826;5.850;2023-06-22T10:48:18;16.20;;;9.90;;
67053;SDS011;53960;51.826;5.850;2023-06-22T10:50:43;16.67;;;10.57;;
67053;SDS011;53960;51.826;5.850;2023-06-22T10:53:09;15.77;;;10.27;;
67053;SDS011;53960;51.826;5.850;2023-06-22T10:55:34;14.03;;;9.27;;
67053;SDS011;53960;51.826;5.850;2023-06-22T10:57:59;14.63;;;9.37;;
67053;SDS011;53960;51.826;5.850;2023-06-22T11:00:25;14.68;;;9.00;;
67053;SDS011;53960;51.826;5.850;2023-06-22T11:02:50;15.77;;;9.70;;
67053;SDS011;53960;51.826;5.850;2023-06-22T11:05:16;15.37;;;9.10;;
67053;SDS011;53960;51.826;5.850;2023-06-22T11:07:42;16.83;;;9.30;;
67053;SDS011;53960;51.826;5.850;2023-06-22T11:10:08;14.18;;;9.10;;
67053;SDS011;53960;51.826;5.850;2023-06-22T11:12:34;13.95;;;9.43;;
67053;SDS011;53960;51.826;5.850;2023-06-22T11:14:59;15.97;;;9.80;;
67053;SDS011;53960;51.826;5.850;2023-06-22T11:17:25;15.57;;;10.47;;
67053;SDS011;53960;51.826;5.850;2023-06-22T11:19:50;16.17;;;9.77;;
67053;SDS011;53960;51.826;5.850;2023-06-22T11:22:16;15.90;;;9.82;;
67053;SDS011;53960;51.826;5.850;2023-06-22T11:24:41;15.30;;;9.33;;
67053;SDS011;53960;51.826;5.850;2023-06-22T11:27:06;14.30;;;10.10;;
67053;SDS011;53960;51.826;5.850;2023-06-22T11:29:32;15.40;;;10.00;;
67053;SDS011;53960;51.826;5.850;2023-06-22T11:31:57;14.27;;;8.40;;
67053;SDS011;53960;51.826;5.850;2023-06-22T11:34:22;14.93;;;9.80;;
67053;SDS011;53960;51.826;5.850;2023-06-22T11:36:48;13.93;;;9.47;;
67053;SDS011;53960;51.826;5.850;2023-06-22T11:39:13;14.63;;;9.63;;
67053;SDS011;53960;51.826;5.850;2023-06-22T11:41:39;14.07;;;10.32;;
67053;SDS011;53960;51.826;5.850;2023-06-22T11:44:05;16.00;;;10.60;;
67053;SDS011;53960;51.826;5.850;2023-06-22T11:46:31;16.00;;;11.18;;
67053;SDS011;53960;51.826;5.850;2023-06-22T11:48:57;18.30;;;12.03;;
67053;SDS011;53960;51.826;5.850;2023-06-22T11:51:23;17.27;;;12.20;;
67053;SDS011;53960;51.826;5.850;2023-06-22T11:53:48;20.33;;;12.73;;
67053;SDS011;53960;51.826;5.850;2023-06-22T11:56:13;22.47;;;13.63;;
67053;SDS011;53960;51.826;5.850;2023-06-22T11:58:39;19.63;;;13.27;;
67053;SDS011;53960;51.826;5.850;2023-06-22T12:01:04;18.83;;;12.10;;
67053;SDS011;53960;51.826;5.850;2023-06-22T12:03:30;18.13;;;12.63;;
67053;SDS011;53960;51.826;5.850;2023-06-22T12:05:55;17.30;;;12.37;;
67053;SDS011;53960;51.826;5.850;2023-06-22T12:08:21;20.50;;;13.18;;
67053;SDS011;53960;51.826;5.850;2023-06-22T12:10:47;20.50;;;13.30;;
67053;SDS011;53960;51.826;5.850;2023-06-22T12:13:14;18.63;;;12.70;;
67053;SDS011;53960;51.826;5.850;2023-06-22T12:15:40;18.25;;;13.10;;
67053;SDS011;53960;51.826;5.850;2023-06-22T12:18:05;18.07;;;13.70;;
67053;SDS011;53960;51.826;5.850;2023-06-22T12:20:30;19.60;;;13.37;;
67053;SDS011;53960;51.826;5.850;2023-06-22T12:22:56;19.33;;;13.67;;
67053;SDS011;53960;51.826;5.850;2023-06-22T12:25:23;20.75;;;14.98;;
67053;SDS011;53960;51.826;5.850;2023-06-22T12:27:48;20.17;;;14.43;;
67053;SDS011;53960;51.826;5.850;2023-06-22T12:30:15;19.85;;;14.25;;
67053;SDS011;53960;51.826;5.850;2023-06-22T12:32:41;19.77;;;14.53;;
67053;SDS011;53960;51.826;5.850;2023-06-22T12:35:07;21.48;;;14.23;;
67053;SDS011;53960;51.826;5.850;2023-06-22T12:37:37;21.50;;;14.60;;
67053;SDS011;53960;51.826;5.850;2023-06-22T12:40:02;20.45;;;15.48;;
67053;SDS011;53960;51.826;5.850;2023-06-22T12:42:29;22.10;;;14.50;;
67053;SDS011;53960;51.826;5.850;2023-06-22T12:44:54;20.70;;;14.80;;
67053;SDS011;53960;51.826;5.850;2023-06-22T12:47:19;21.23;;;16.23;;
67053;SDS011;53960;51.826;5.850;2023-06-22T12:49:45;23.10;;;15.47;;
67053;SDS011;53960;51.826;5.850;2023-06-22T12:52:10;20.13;;;14.70;;
67053;SDS011;53960;51.826;5.850;2023-06-22T12:54:36;18.57;;;14.03;;
67053;SDS011;53960;51.826;5.850;2023-06-22T12:57:01;19.93;;;16.13;;
67053;SDS011;53960;51.826;5.850;2023-06-22T12:59:27;20.40;;;14.57;;
67053;SDS011;53960;51.826;5.850;2023-06-22T13:01:52;20.17;;;14.63;;
67053;SDS011;53960;51.826;5.850;2023-06-22T13:04:17;19.67;;;15.50;;
67053;SDS011;53960;51.826;5.850;2023-06-22T13:06:44;18.92;;;15.50;;
67053;SDS011;53960;51.826;5.850;2023-06-22T13:09:13;21.53;;;15.43;;
67053;SDS011;53960;51.826;5.850;2023-06-22T13:11:39;22.48;;;16.50;;
67053;SDS011;53960;51.826;5.850;2023-06-22T13:14:04;21.60;;;16.57;;
67053;SDS011;53960;51.826;5.850;2023-06-22T13:16:29;21.85;;;15.65;;
67053;SDS011;53960;51.826;5.850;2023-06-22T13:18:55;23.13;;;16.47;;
67053;SDS011;53960;51.826;5.850;2023-06-22T13:21:20;23.37;;;15.67;;
67053;SDS011;53960;51.826;5.850;2023-06-22T13:23:46;22.27;;;16.20;;
67053;SDS011;53960;51.826;5.850;2023-06-22T13:26:11;20.67;;;15.20;;
67053;SDS011;53960;51.826;5.850;2023-06-22T13:28:36;20.07;;;14.83;;
67053;SDS011;53960;51.826;5.850;2023-06-22T13:31:02;18.77;;;14.73;;
67053;SDS011;53960;51.826;5.850;2023-06-22T13:33:27;18.83;;;14.10;;
67053;SDS011;53960;51.826;5.850;2023-06-22T13:35:52;20.67;;;14.83;;
67053;SDS011;53960;51.826;5.850;2023-06-22T13:38:18;17.67;;;13.40;;
67053;SDS011;53960;51.826;5.850;2023-06-22T13:40:43;18.60;;;14.27;;
67053;SDS011;53960;51.826;5.850;2023-06-22T13:43:09;18.25;;;12.77;;
67053;SDS011;53960;51.826;5.850;2023-06-22T13:45:34;17.03;;;12.97;;
67053;SDS011;53960;51.826;5.850;2023-06-22T13:47:59;19.50;;;13.63;;
67053;SDS011;53960;51.826;5.850;2023-06-22T13:50:25;17.50;;;13.23;;
67053;SDS011;53960;51.826;5.850;2023-06-22T13:52:50;18.77;;;13.32;;
67053;SDS011;53960;51.826;5.850;2023-06-22T13:55:16;18.30;;;13.57;;
67053;SDS011;53960;51.826;5.850;2023-06-22T13:57:41;19.20;;;13.80;;
67053;SDS011;53960;51.826;5.850;2023-06-22T14:00:07;20.33;;;14.80;;
67053;SDS011;53960;51.826;5.850;2023-06-22T14:02:33;20.30;;;14.00;;
67053;SDS011;53960;51.826;5.850;2023-06-22T14:04:58;19.67;;;14.40;;
67053;SDS011;53960;51.826;5.850;2023-06-22T14:07:24;16.47;;;13.00;;
67053;SDS011;53960;51.826;5.850;2023-06-22T14:09:49;19.97;;;14.73;;
67053;SDS011;53960;51.826;5.850;2023-06-22T14:12:15;17.95;;;12.90;;
67053;SDS011;53960;51.826;5.850;2023-06-22T14:14:42;18.08;;;13.93;;
67053;SDS011;53960;51.826;5.850;2023-06-22T14:17:08;21.23;;;15.03;;
67053;SDS011;53960;51.826;5.850;2023-06-22T14:19:33;20.33;;;15.20;;
67053;SDS011;53960;51.826;5.850;2023-06-22T14:21:59;20.92;;;16.10;;
67053;SDS011;53960;51.826;5.850;2023-06-22T14:24:24;20.80;;;14.97;;
67053;SDS011;53960;51.826;5.850;2023-06-22T14:26:49;21.70;;;15.50;;
67053;SDS011;53960;51.826;5.850;2023-06-22T14:29:15;20.97;;;14.43;;
67053;SDS011;53960;51.826;5.850;2023-06-22T14:31:40;21.93;;;16.13;;
67053;SDS011;53960;51.826;5.850;2023-06-22T14:34:06;21.13;;;15.97;;